Time;durP1;ratioP1;P1;durP2;ratioP2;P2;SDS_P1;SDS_P2;PMS_P1;PMS_P2;Temp;Humidity;BMP_temperature;BMP_pressure;BME280_temperature;BME280_humidity;BME280_pressure;Samples;Min_cycle;Max_cycle;Signal;HPM_P1;HPM_P2
2022/11/19 00:02:10;;;;;;;0.10;0.10;;;13.00;95.00;;;;;;5069739;28;20757;-77
2022/11/19 00:04:36;;;;;;;0.08;0.08;;;12.90;95.10;;;;;;5064336;28;20178;-77
2022/11/19 00:07:02;;;;;;;0.10;0.10;;;12.90;95.10;;;;;;5072247;28;20603;-76
2022/11/19 00:09:27;;;;;;;0.13;0.13;;;12.90;95.10;;;;;;5071416;28;20178;-76
2022/11/19 00:14:37;;;;;;;0.08;0.08;;;12.90;94.50;;;;;;5068900;28;20198;-76
2022/11/19 00:17:03;;;;;;;0.10;0.10;;;12.80;94.80;;;;;;5068481;28;20183;-77
2022/11/19 00:19:28;;;;;;;0.32;0.10;;;12.70;95.00;;;;;;5064764;28;20203;-77
2022/11/19 00:21:54;;;;;;;0.05;0.05;;;12.70;95.10;;;;;;5067133;28;20185;-76
2022/11/19 00:24:21;;;;;;;0.03;0.03;;;12.60;95.30;;;;;;5071116;28;20189;-76
2022/11/19 00:26:47;;;;;;;0.00;0.00;;;12.60;94.90;;;;;;5074869;28;20262;-76
2022/11/19 00:29:12;;;;;;;0.10;0.10;;;12.60;94.80;;;;;;5073821;28;20183;-76
2022/11/19 00:31:38;;;;;;;0.20;0.20;;;12.60;94.90;;;;;;5077003;28;20205;-76
2022/11/19 00:34:04;;;;;;;0.10;0.10;;;12.60;94.60;;;;;;5069939;28;20178;-76
2022/11/19 00:36:30;;;;;;;0.03;0.03;;;12.70;93.90;;;;;;5071334;28;20190;-76
2022/11/19 00:38:55;;;;;;;0.05;0.05;;;12.70;93.80;;;;;;5073461;28;20186;-76
2022/11/19 00:41:21;;;;;;;0.10;0.10;;;12.60;93.80;;;;;;5073360;28;20182;-74
2022/11/19 00:43:47;;;;;;;0.00;0.00;;;12.70;93.60;;;;;;5071711;28;20188;-77
2022/11/19 00:46:22;;;;;;;0.10;0.10;;;12.60;93.90;;;;;;5070551;28;20286;-77
2022/11/19 00:48:49;;;;;;;0.00;0.00;;;12.60;94.10;;;;;;5067036;28;20178;-76
2022/11/19 00:51:16;;;;;;;1.00;0.10;;;12.60;93.60;;;;;;5069140;28;20178;-76
2022/11/19 00:53:42;;;;;;;0.10;0.10;;;12.70;93.50;;;;;;5073687;28;20256;-76
2022/11/19 00:56:13;;;;;;;0.82;0.15;;;12.70;93.70;;;;;;5072724;28;20187;-76
2022/11/19 00:58:39;;;;;;;0.03;0.03;;;12.60;93.80;;;;;;5070201;28;20203;-77
2022/11/19 01:01:06;;;;;;;0.10;0.10;;;12.50;94.00;;;;;;5078260;28;20183;-77
2022/11/19 01:03:32;;;;;;;0.10;0.10;;;12.50;94.10;;;;;;5071492;28;20208;-76
2022/11/19 01:05:58;;;;;;;0.10;0.10;;;12.40;94.20;;;;;;5068787;28;20599;-76
2022/11/19 01:08:24;;;;;;;0.10;0.10;;;12.40;94.10;;;;;;5077467;28;20171;-76
2022/11/19 01:10:49;;;;;;;0.10;0.10;;;12.40;94.20;;;;;;5077068;28;20246;-76
2022/11/19 01:13:33;;;;;;;0.10;0.10;;;12.40;93.80;;;;;;5068963;28;20179;-76
2022/11/19 01:16:00;;;;;;;0.00;0.00;;;12.40;93.80;;;;;;5069134;28;21320;-76
2022/11/19 01:18:27;;;;;;;0.10;0.10;;;12.40;93.70;;;;;;5076829;28;20183;-76
2022/11/19 01:20:53;;;;;;;0.10;0.10;;;12.50;93.50;;;;;;5069780;28;20182;-76
2022/11/19 01:23:19;;;;;;;0.00;0.00;;;12.40;93.60;;;;;;5077067;28;20697;-76
2022/11/19 01:25:45;;;;;;;0.00;0.00;;;12.40;93.90;;;;;;5075346;28;20281;-76
2022/11/19 01:28:11;;;;;;;0.52;0.10;;;12.40;93.50;;;;;;5073978;28;20270;-77
2022/11/19 01:30:39;;;;;;;2.53;0.20;;;12.30;93.90;;;;;;5073888;28;20565;-75
2022/11/19 01:33:05;;;;;;;0.00;0.00;;;12.30;94.20;;;;;;5069847;28;20261;-76
2022/11/19 01:35:32;;;;;;;0.00;0.00;;;12.30;94.30;;;;;;5067007;28;20273;-76
2022/11/19 01:37:59;;;;;;;1.08;0.10;;;12.30;94.30;;;;;;5068956;28;20568;-76
2022/11/19 01:40:28;;;;;;;0.65;0.13;;;12.20;94.40;;;;;;5066577;28;20187;-77
2022/11/19 01:42:54;;;;;;;0.10;0.10;;;12.30;93.80;;;;;;5076278;28;20274;-76
2022/11/19 01:45:34;;;;;;;0.00;0.00;;;12.30;93.50;;;;;;5068234;28;20306;-77
2022/11/19 01:48:13;;;;;;;0.00;0.00;;;12.30;93.70;;;;;;5072911;28;20179;-76
2022/11/19 01:50:44;;;;;;;0.10;0.10;;;12.40;93.20;;;;;;5070122;28;20607;-77
2022/11/19 01:53:11;;;;;;;0.00;0.00;;;12.40;92.80;;;;;;5069535;28;20174;-76
2022/11/19 01:55:39;;;;;;;0.00;0.00;;;12.40;92.60;;;;;;5070089;28;20214;-77
2022/11/19 01:58:06;;;;;;;0.20;0.10;;;12.40;93.20;;;;;;5070498;28;20739;-76
2022/11/19 02:00:32;;;;;;;2.55;0.10;;;12.40;93.10;;;;;;5069958;28;20235;-75
2022/11/19 02:02:58;;;;;;;0.08;0.08;;;12.40;92.80;;;;;;5071916;28;20260;-77
2022/11/19 02:05:25;;;;;;;0.10;0.10;;;12.50;92.30;;;;;;5072111;28;20190;-75
2022/11/19 02:07:54;;;;;;;0.10;0.10;;;12.40;92.60;;;;;;5072567;28;20175;-75
2022/11/19 02:10:28;;;;;;;0.10;0.10;;;12.50;92.30;;;;;;5073260;28;20219;-74
2022/11/19 02:13:00;;;;;;;0.10;0.10;;;12.50;92.30;;;;;;5072039;28;20183;-76
2022/11/19 02:15:44;;;;;;;0.10;0.10;;;12.50;92.10;;;;;;5069771;28;20577;-75
2022/11/19 02:18:54;;;;;;;0.20;0.20;;;12.60;91.90;;;;;;5073786;28;20178;-77
2022/11/19 02:21:29;;;;;;;0.03;0.00;;;12.50;91.70;;;;;;5048222;28;20979;-77
2022/11/19 02:24:19;;;;;;;0.15;0.15;;;12.60;91.50;;;;;;5050804;28;20651;-76
2022/11/19 02:27:15;;;;;;;0.63;0.25;;;12.60;91.20;;;;;;5047862;28;20372;-77
2022/11/19 02:29:56;;;;;;;0.10;0.10;;;12.60;91.20;;;;;;5048092;28;20241;-76
2022/11/19 02:32:39;;;;;;;0.10;0.10;;;12.60;91.30;;;;;;5044430;28;20202;-77
2022/11/19 02:35:30;;;;;;;0.25;0.25;;;12.60;91.10;;;;;;5048461;28;20640;-77
2022/11/19 02:37:56;;;;;;;0.63;0.20;;;12.60;91.10;;;;;;5049018;28;20272;-77
2022/11/19 02:40:30;;;;;;;0.20;0.20;;;12.50;90.90;;;;;;5044422;28;20665;-77
2022/11/19 02:43:15;;;;;;;0.20;0.20;;;12.50;90.80;;;;;;5045250;28;20245;-76
2022/11/19 02:45:47;;;;;;;0.15;0.15;;;12.40;90.60;;;;;;5031119;28;20283;-76
2022/11/19 02:48:18;;;;;;;3.50;0.40;;;12.30;90.90;;;;;;5059451;28;20192;-76
2022/11/19 02:50:49;;;;;;;0.30;0.30;;;12.30;91.10;;;;;;5043212;28;20262;-77
2022/11/19 02:53:15;;;;;;;0.65;0.45;;;12.20;91.40;;;;;;5046360;28;20191;-76
2022/11/19 02:56:09;;;;;;;0.30;0.30;;;12.10;91.60;;;;;;5053369;28;20801;-77
2022/11/19 03:06:42;;;;;;;1.85;0.43;;;11.90;91.50;;;;;;5068637;28;20221;-76
2022/11/19 03:09:08;;;;;;;0.65;0.40;;;11.90;91.30;;;;;;5069502;28;20179;-76
2022/11/19 03:11:34;;;;;;;0.47;0.47;;;11.90;91.60;;;;;;5072030;28;20180;-76
2022/11/19 03:17:47;;;;;;;3.50;0.82;;;11.70;91.10;;;;;;5067845;28;20267;-76
2022/11/19 03:20:12;;;;;;;0.50;0.50;;;11.60;92.30;;;;;;5038904;28;20209;-76
2022/11/19 03:22:40;;;;;;;0.57;0.57;;;11.60;92.00;;;;;;5038861;28;20274;-76
2022/11/19 03:25:15;;;;;;;0.50;0.50;;;11.60;91.90;;;;;;5038274;28;20195;-77
2022/11/19 03:27:51;;;;;;;0.65;0.65;;;11.60;92.00;;;;;;5037755;28;20736;-76
2022/11/19 03:30:18;;;;;;;0.70;0.70;;;11.50;91.50;;;;;;5040118;28;20207;-77
2022/11/19 03:32:53;;;;;;;0.60;0.60;;;11.50;91.80;;;;;;5040305;28;20192;-77
2022/11/19 03:35:29;;;;;;;0.20;0.20;;;11.50;92.30;;;;;;5039659;28;20187;-77
2022/11/19 03:38:00;;;;;;;0.30;0.30;;;11.50;92.80;;;;;;5036867;28;20223;-77
2022/11/19 03:40:29;;;;;;;0.30;0.30;;;11.50;92.70;;;;;;5038849;28;20256;-77
2022/11/19 03:42:57;;;;;;;0.55;0.55;;;11.50;93.20;;;;;;5038637;28;20199;-77
2022/11/19 03:45:30;;;;;;;0.40;0.40;;;11.50;92.60;;;;;;5038673;28;20195;-76
2022/11/19 03:47:57;;;;;;;0.45;0.32;;;11.50;92.60;;;;;;5038617;28;20249;-76
2022/11/19 03:50:32;;;;;;;0.40;0.40;;;11.50;92.50;;;;;;5038882;28;20215;-77
2022/11/19 03:52:58;;;;;;;1.20;0.57;;;11.40;92.60;;;;;;5038443;28;20195;-77
2022/11/19 03:55:33;;;;;;;3.15;0.70;;;11.50;93.50;;;;;;5038418;28;20176;-77
2022/11/19 03:58:06;;;;;;;0.50;0.50;;;11.50;93.30;;;;;;5067565;28;20335;-75
2022/11/19 04:00:32;;;;;;;0.47;0.47;;;11.50;93.80;;;;;;5070604;28;20871;-77
2022/11/19 04:02:58;;;;;;;1.15;0.52;;;11.50;93.90;;;;;;5103228;27;20930;-76
2022/11/19 04:05:24;;;;;;;0.40;0.40;;;11.40;93.30;;;;;;5064627;28;20277;-76
2022/11/19 04:07:50;;;;;;;0.63;0.50;;;11.40;93.40;;;;;;5068212;28;20267;-76
2022/11/19 04:10:15;;;;;;;0.50;0.50;;;11.40;94.10;;;;;;5070105;28;20299;-76
2022/11/19 04:12:41;;;;;;;0.50;0.50;;;11.40;93.80;;;;;;5071939;28;20182;-76
2022/11/19 04:15:10;;;;;;;0.47;0.47;;;11.40;93.50;;;;;;5066925;28;20182;-76
2022/11/19 04:17:35;;;;;;;0.40;0.40;;;11.30;93.20;;;;;;5059974;28;21067;-76
2022/11/19 04:20:01;;;;;;;0.40;0.40;;;11.30;93.50;;;;;;5067570;28;20195;-76
2022/11/19 04:22:27;;;;;;;1.08;0.63;;;11.30;93.40;;;;;;5071340;28;20273;-76
2022/11/19 04:24:52;;;;;;;0.75;0.43;;;11.30;92.90;;;;;;5068265;28;20683;-76
2022/11/19 04:27:18;;;;;;;0.32;0.32;;;11.20;93.00;;;;;;5068380;28;20218;-77
2022/11/19 04:29:44;;;;;;;0.75;0.68;;;11.30;93.70;;;;;;5073221;28;20655;-77
2022/11/19 04:32:09;;;;;;;0.60;0.60;;;11.30;94.10;;;;;;5065527;28;20177;-76
2022/11/19 04:34:35;;;;;;;0.40;0.40;;;11.30;93.90;;;;;;5069372;28;20183;-77
2022/11/19 04:37:01;;;;;;;0.88;0.50;;;11.30;93.70;;;;;;5068457;28;20600;-76
2022/11/19 04:39:26;;;;;;;0.40;0.40;;;11.20;93.50;;;;;;5062142;28;20559;-77
2022/11/19 04:41:52;;;;;;;0.50;0.50;;;11.20;94.30;;;;;;5071614;28;20178;-77
2022/11/19 04:44:17;;;;;;;0.50;0.50;;;11.20;94.50;;;;;;5070390;28;20215;-76
2022/11/19 04:46:43;;;;;;;0.50;0.50;;;11.30;94.70;;;;;;5066465;28;20210;-77
2022/11/19 04:49:09;;;;;;;1.42;0.45;;;11.20;94.90;;;;;;5066968;28;20175;-74
2022/11/19 04:51:34;;;;;;;0.63;0.60;;;11.20;95.00;;;;;;5066764;28;20189;-76
2022/11/19 04:54:00;;;;;;;0.47;0.47;;;11.20;94.50;;;;;;5063839;28;20770;-76
2022/11/19 04:56:26;;;;;;;0.43;0.43;;;11.20;94.10;;;;;;5064521;28;20213;-76
2022/11/19 04:58:51;;;;;;;0.50;0.50;;;11.10;94.00;;;;;;5062538;28;20240;-76
2022/11/19 05:01:19;;;;;;;1.10;0.60;;;11.10;93.80;;;;;;5069558;28;20193;-77
2022/11/19 05:03:48;;;;;;;2.03;0.75;;;11.10;93.70;;;;;;5066198;28;20179;-76
2022/11/19 05:06:13;;;;;;;0.50;0.50;;;11.10;93.50;;;;;;5064442;28;20312;-76
2022/11/19 05:08:39;;;;;;;0.70;0.70;;;11.10;93.30;;;;;;5071655;28;20211;-76
2022/11/19 05:11:05;;;;;;;0.90;0.75;;;11.10;93.50;;;;;;5069729;28;20186;-76
2022/11/19 05:13:30;;;;;;;0.80;0.80;;;11.10;93.20;;;;;;5073619;28;20205;-77
2022/11/19 05:15:56;;;;;;;0.60;0.60;;;11.00;93.20;;;;;;5069409;28;20594;-76
2022/11/19 05:18:22;;;;;;;0.63;0.63;;;11.00;93.20;;;;;;5071715;28;20278;-76
2022/11/19 05:20:48;;;;;;;0.70;0.70;;;11.00;93.00;;;;;;5073724;28;20171;-77
2022/11/19 05:23:14;;;;;;;0.63;0.63;;;11.00;93.20;;;;;;5073299;28;20182;-76
2022/11/19 05:25:39;;;;;;;0.70;0.70;;;11.00;93.60;;;;;;5070161;28;20178;-76
2022/11/19 05:28:05;;;;;;;0.95;0.95;;;11.00;93.60;;;;;;5071019;28;20172;-76
2022/11/19 05:30:31;;;;;;;1.60;1.20;;;11.00;93.70;;;;;;5063430;28;20184;-76
2022/11/19 05:32:56;;;;;;;1.33;1.00;;;11.00;94.00;;;;;;5070843;28;20174;-76
2022/11/19 05:35:22;;;;;;;1.85;1.25;;;11.00;94.20;;;;;;5064667;28;20198;-76
2022/11/19 05:37:49;;;;;;;0.82;0.82;;;11.00;94.40;;;;;;5067134;28;20187;-76
2022/11/19 05:40:15;;;;;;;0.82;0.82;;;10.90;94.10;;;;;;5072487;28;20185;-76
2022/11/19 05:42:40;;;;;;;1.10;1.10;;;10.90;93.90;;;;;;5069613;28;20187;-77
2022/11/19 05:45:06;;;;;;;1.10;1.10;;;10.90;94.50;;;;;;5066472;28;20202;-77
2022/11/19 05:47:32;;;;;;;0.90;0.88;;;11.00;95.00;;;;;;5070714;28;20214;-76
2022/11/19 05:49:58;;;;;;;0.68;0.68;;;10.90;95.30;;;;;;5067722;28;20190;-76
2022/11/19 05:52:24;;;;;;;0.68;0.68;;;10.90;95.00;;;;;;5068455;28;20179;-77
2022/11/19 05:54:49;;;;;;;0.93;0.93;;;10.90;94.90;;;;;;5067659;28;20181;-76
2022/11/19 05:57:15;;;;;;;1.23;1.13;;;10.80;94.70;;;;;;5072559;28;20906;-76
2022/11/19 05:59:41;;;;;;;1.20;1.20;;;10.80;94.90;;;;;;5074516;28;20182;-76
2022/11/19 06:02:06;;;;;;;1.00;1.00;;;10.90;95.20;;;;;;5072333;28;20170;-76
2022/11/19 06:04:32;;;;;;;1.40;1.30;;;10.90;95.00;;;;;;5068594;28;20183;-76
2022/11/19 06:06:58;;;;;;;1.10;1.10;;;10.90;94.70;;;;;;5067624;28;20249;-76
2022/11/19 06:09:23;;;;;;;1.08;1.08;;;10.80;94.50;;;;;;5078039;28;20178;-76
2022/11/19 06:11:49;;;;;;;1.73;1.63;;;10.80;94.40;;;;;;5074575;28;20668;-75
2022/11/19 06:14:21;;;;;;;1.65;1.30;;;10.80;94.30;;;;;;5072886;28;20988;-76
2022/11/19 06:16:48;;;;;;;2.67;1.40;;;10.90;94.20;;;;;;5075713;28;20214;-77
2022/11/19 06:19:13;;;;;;;1.58;1.55;;;10.90;94.20;;;;;;5071964;28;20271;-76
2022/11/19 06:21:39;;;;;;;1.48;1.38;;;10.90;94.30;;;;;;5069700;28;20178;-76
2022/11/19 06:24:05;;;;;;;1.67;1.55;;;10.90;94.50;;;;;;5072012;28;20274;-76
2022/11/19 06:26:31;;;;;;;1.15;1.15;;;10.90;94.20;;;;;;5076739;28;20278;-75
2022/11/19 06:28:57;;;;;;;1.00;1.00;;;10.90;94.10;;;;;;5062197;28;20183;-76
2022/11/19 06:31:23;;;;;;;1.27;1.27;;;11.00;94.20;;;;;;5073901;28;20195;-76
2022/11/19 06:33:49;;;;;;;1.80;1.17;;;11.00;94.80;;;;;;5067041;28;20270;-76
2022/11/19 06:36:15;;;;;;;1.50;1.40;;;11.00;94.70;;;;;;5072718;28;20849;-76
2022/11/19 06:38:41;;;;;;;1.40;1.30;;;11.10;95.10;;;;;;5068719;28;20205;-76
2022/11/19 06:41:07;;;;;;;3.90;2.05;;;11.10;94.80;;;;;;5074857;28;20257;-76
2022/11/19 06:43:32;;;;;;;1.73;1.70;;;11.10;95.00;;;;;;5065516;28;20182;-77
2022/11/19 06:45:58;;;;;;;1.50;1.40;;;11.10;94.80;;;;;;5073011;28;20210;-77
2022/11/19 06:48:24;;;;;;;1.88;1.77;;;11.10;94.80;;;;;;5066530;28;20175;-77
2022/11/19 06:50:49;;;;;;;1.50;1.42;;;11.20;95.00;;;;;;5068287;28;20248;-77
2022/11/19 06:53:15;;;;;;;1.80;1.70;;;11.20;95.30;;;;;;5069929;28;20205;-76
2022/11/19 06:55:41;;;;;;;2.08;1.98;;;11.20;95.30;;;;;;5078668;28;20202;-77
2022/11/19 06:58:07;;;;;;;1.52;1.50;;;11.30;95.20;;;;;;5071189;28;20238;-77
2022/11/19 07:00:33;;;;;;;2.10;1.58;;;11.30;94.80;;;;;;5070786;28;20185;-77
2022/11/19 07:02:59;;;;;;;1.17;1.10;;;11.20;95.20;;;;;;5068240;28;20192;-77
2022/11/19 07:05:24;;;;;;;2.05;1.95;;;11.20;95.10;;;;;;5073889;28;20181;-77
2022/11/19 07:07:50;;;;;;;2.03;1.92;;;11.30;95.40;;;;;;5061840;28;20246;-77
2022/11/19 07:10:16;;;;;;;1.10;1.10;;;11.30;95.30;;;;;;5068118;28;20183;-78
2022/11/19 07:12:42;;;;;;;1.13;1.13;;;11.40;95.30;;;;;;5070285;28;20187;-78
2022/11/19 07:15:08;;;;;;;3.80;3.33;;;11.50;96.00;;;;;;5072347;28;20896;-77
2022/11/19 07:17:34;;;;;;;4.10;3.25;;;11.70;96.70;;;;;;5073565;28;21077;-77
2022/11/19 07:20:00;;;;;;;2.20;2.10;;;11.90;96.90;;;;;;5071365;28;20186;-78
2022/11/19 07:22:26;;;;;;;2.35;2.25;;;12.10;96.60;;;;;;5073075;28;20190;-78
2022/11/19 07:24:52;;;;;;;2.55;2.35;;;12.30;96.00;;;;;;5064592;28;20614;-76
2022/11/19 07:27:17;;;;;;;2.28;2.17;;;12.40;95.80;;;;;;5074998;28;20217;-76
2022/11/19 07:29:43;;;;;;;2.08;1.98;;;12.50;95.80;;;;;;5071050;28;20219;-75
2022/11/19 07:32:09;;;;;;;3.63;2.35;;;12.70;96.00;;;;;;5069576;28;20194;-77
2022/11/19 07:34:34;;;;;;;1.63;1.52;;;13.00;96.50;;;;;;5067691;28;20213;-76
2022/11/19 07:37:00;;;;;;;1.48;1.48;;;13.30;95.50;;;;;;5066769;28;20265;-75
2022/11/19 07:39:26;;;;;;;3.20;1.60;;;13.50;94.00;;;;;;5064971;28;20202;-76
2022/11/19 07:44:36;;;;;;;2.42;2.33;;;13.90;94.30;;;;;;5061749;28;20675;-76
2022/11/19 07:47:02;;;;;;;2.17;2.08;;;14.10;94.50;;;;;;5065420;28;20218;-75
2022/11/19 07:49:27;;;;;;;2.88;2.78;;;14.50;94.40;;;;;;5059371;28;20183;-75
2022/11/19 07:51:53;;;;;;;2.72;2.53;;;14.90;92.70;;;;;;5065169;28;20255;-74
2022/11/19 07:54:19;;;;;;;2.30;2.17;;;15.30;92.30;;;;;;5070328;28;20182;-73
2022/11/19 07:56:45;;;;;;;1.80;1.80;;;15.80;92.10;;;;;;5064588;28;20186;-72
2022/11/19 07:59:11;;;;;;;1.70;1.65;;;16.40;91.70;;;;;;5068409;28;20189;-73
2022/11/19 08:01:37;;;;;;;1.30;1.30;;;17.00;87.70;;;;;;5065517;28;20270;-74
2022/11/19 08:04:04;;;;;;;1.45;1.35;;;17.50;87.70;;;;;;5068576;28;21036;-73
2022/11/19 08:06:32;;;;;;;2.03;1.92;;;18.10;87.10;;;;;;5066294;28;20674;-74
2022/11/19 08:08:57;;;;;;;1.67;1.60;;;18.80;85.50;;;;;;5064116;28;20186;-74
2022/11/19 08:11:23;;;;;;;1.83;1.73;;;19.20;83.90;;;;;;5067824;28;20646;-74
2022/11/19 08:13:49;;;;;;;1.58;1.58;;;19.60;81.50;;;;;;5069611;28;20262;-74
2022/11/19 08:19:02;;;;;;;2.15;1.98;;;20.10;81.00;;;;;;5069585;28;20679;-75
2022/11/19 08:21:28;;;;;;;2.05;1.58;;;20.50;81.10;;;;;;5067407;28;20179;-75
2022/11/19 08:23:54;;;;;;;1.40;1.40;;;20.90;80.60;;;;;;5071967;28;20202;-75
2022/11/19 08:26:19;;;;;;;2.55;1.55;;;21.40;79.00;;;;;;5068723;28;20926;-75
2022/11/19 08:28:45;;;;;;;1.38;1.38;;;22.00;76.50;;;;;;5074050;28;20171;-74
2022/11/19 08:31:11;;;;;;;1.52;1.48;;;22.50;73.80;;;;;;5072537;28;20342;-74
2022/11/19 08:33:36;;;;;;;1.77;1.38;;;22.90;76.10;;;;;;5068424;28;20179;-74
2022/11/19 08:36:03;;;;;;;1.55;1.55;;;23.40;75.80;;;;;;5069065;28;20190;-74
2022/11/19 08:38:29;;;;;;;1.38;1.27;;;23.90;74.70;;;;;;5063155;28;20190;-75
2022/11/19 08:42:58;;;;;;;1.50;1.50;;;24.30;74.70;;;;;;5067638;28;20652;-73
2022/11/19 08:43:40;;;;;;;2.25;1.60;;;24.70;73.80;;;;;;5061390;28;20187;-72
2022/11/19 08:46:06;;;;;;;1.88;1.73;;;25.00;70.30;;;;;;5070832;28;21137;-72
2022/11/19 08:48:32;;;;;;;1.80;1.80;;;25.20;70.40;;;;;;5071140;28;20225;-72
2022/11/19 08:51:01;;;;;;;1.60;1.50;;;25.40;70.60;;;;;;5070076;28;20643;-72
2022/11/19 08:53:27;;;;;;;1.75;1.65;;;25.60;70.00;;;;;;5071446;28;20280;-73
2022/11/19 08:55:52;;;;;;;2.28;2.17;;;25.90;70.00;;;;;;5073984;28;20190;-72
2022/11/19 08:58:18;;;;;;;1.60;1.60;;;26.30;68.30;;;;;;5075255;28;20285;-71
2022/11/19 09:00:43;;;;;;;1.80;1.70;;;26.70;67.90;;;;;;5068821;28;20261;-73
2022/11/19 09:03:09;;;;;;;1.95;1.85;;;27.00;68.10;;;;;;5072155;28;21362;-70
2022/11/19 09:05:35;;;;;;;1.35;1.35;;;27.30;67.10;;;;;;5075778;28;20206;-73
2022/11/19 09:08:01;;;;;;;0.90;0.90;;;27.60;63.20;;;;;;5063475;28;20191;-74
2022/11/19 09:10:27;;;;;;;0.90;0.90;;;27.90;64.60;;;;;;5066551;28;20190;-74
2022/11/19 09:12:53;;;;;;;0.70;0.70;;;28.20;65.00;;;;;;5065554;28;20244;-74
2022/11/19 09:15:19;;;;;;;0.90;0.90;;;28.40;65.30;;;;;;5063419;28;20194;-73
2022/11/19 09:17:45;;;;;;;1.15;1.00;;;28.40;64.60;;;;;;5069721;28;20210;-73
2022/11/19 09:20:11;;;;;;;1.08;1.08;;;28.40;64.30;;;;;;5069386;28;20827;-72
2022/11/19 09:22:37;;;;;;;0.65;0.65;;;28.50;64.40;;;;;;5069211;28;21617;-73
2022/11/19 09:25:03;;;;;;;0.73;0.70;;;28.60;64.00;;;;;;5066243;28;20676;-72
2022/11/19 09:27:30;;;;;;;1.10;1.00;;;28.90;64.00;;;;;;5068929;28;20225;-72
2022/11/19 09:29:55;;;;;;;0.82;0.82;;;29.20;62.70;;;;;;5069013;28;20187;-73
2022/11/19 09:32:21;;;;;;;1.20;1.20;;;29.60;61.70;;;;;;5066623;28;20191;-70
2022/11/19 09:34:47;;;;;;;1.35;1.35;;;29.90;61.80;;;;;;5061353;28;20581;-71
2022/11/19 09:37:13;;;;;;;2.60;2.40;;;30.20;61.80;;;;;;5067217;28;20182;-72
2022/11/19 09:39:38;;;;;;;2.63;2.42;;;30.40;62.40;;;;;;5070803;28;20265;-72
2022/11/19 09:42:20;;;;;;;2.50;2.40;;;30.40;61.00;;;;;;5067661;28;20572;-71
2022/11/19 09:45:09;;;;;;;2.83;2.63;;;30.30;60.70;;;;;;5067646;28;20271;-70
2022/11/19 09:47:58;;;;;;;2.28;2.28;;;30.30;60.10;;;;;;5070089;28;20232;-71
2022/11/19 09:50:29;;;;;;;2.20;2.10;;;30.10;58.20;;;;;;5020881;28;20279;-72
2022/11/19 09:53:00;;;;;;;1.65;1.65;;;29.90;58.50;;;;;;5019188;28;20192;-70
2022/11/19 09:55:36;;;;;;;1.52;1.52;;;29.70;62.00;;;;;;5020354;28;20197;-73
2022/11/19 09:58:20;;;;;;;1.60;1.60;;;29.50;58.00;;;;;;5020144;28;20192;-69
2022/11/19 10:00:46;;;;;;;1.52;1.50;;;29.40;61.00;;;;;;5019103;28;20625;-70
2022/11/19 10:03:18;;;;;;;0.77;0.77;;;29.60;60.90;;;;;;5021907;28;20196;-70
2022/11/19 10:05:58;;;;;;;0.90;0.90;;;29.80;58.10;;;;;;5020043;28;20271;-70
2022/11/19 10:08:33;;;;;;;0.63;0.63;;;29.80;61.10;;;;;;5020573;28;20297;-74
2022/11/19 10:11:10;;;;;;;0.70;0.70;;;29.90;61.10;;;;;;5019899;28;20187;-73
2022/11/19 10:14:15;;;;;;;0.70;0.70;;;30.10;57.80;;;;;;5021123;28;20184;-73
2022/11/19 10:17:08;;;;;;;0.50;0.50;;;30.30;57.00;;;;;;4958312;28;20217;-74
2022/11/19 10:19:56;;;;;;;0.68;0.68;;;30.50;57.80;;;;;;4962764;28;20182;-73
2022/11/19 10:22:31;;;;;;;0.70;0.70;;;30.80;56.40;;;;;;4961740;28;20198;-74
2022/11/19 10:25:12;;;;;;;0.77;0.77;;;30.90;59.00;;;;;;4962529;28;20189;-74
2022/11/19 10:27:45;;;;;;;0.75;0.65;;;31.10;56.70;;;;;;4997094;28;20317;-74
2022/11/19 10:30:17;;;;;;;1.20;0.80;;;31.20;58.20;;;;;;5031203;28;20275;-74
2022/11/19 10:32:52;;;;;;;0.77;0.77;;;31.40;53.70;;;;;;5023901;28;20242;-74
2022/11/19 10:35:22;;;;;;;0.85;0.50;;;31.60;55.20;;;;;;5025935;28;20697;-74
2022/11/19 10:38:23;;;;;;;0.88;0.50;;;31.90;57.80;;;;;;5023785;28;20188;-74
2022/11/19 10:40:54;;;;;;;0.60;0.60;;;32.30;53.90;;;;;;4985458;28;20701;-73
2022/11/19 10:43:44;;;;;;;0.93;0.93;;;32.70;58.00;;;;;;4986682;28;20189;-73
2022/11/19 10:46:18;;;;;;;0.80;0.80;;;32.80;54.60;;;;;;4978980;28;20224;-74
2022/11/19 10:48:56;;;;;;;0.80;0.73;;;32.70;56.80;;;;;;4980881;28;20236;-75
2022/11/19 10:51:23;;;;;;;1.27;1.00;;;32.40;52.00;;;;;;4983605;28;20723;-74
2022/11/19 10:53:52;;;;;;;1.15;0.75;;;32.20;54.70;;;;;;4976617;28;20192;-71
2022/11/19 10:56:29;;;;;;;0.65;0.60;;;32.00;55.60;;;;;;4998076;28;20730;-71
2022/11/19 10:59:00;;;;;;;0.98;0.75;;;31.70;53.80;;;;;;5004238;28;20197;-72
2022/11/19 11:01:33;;;;;;;0.50;0.50;;;31.40;52.60;;;;;;4988579;28;20576;-72
2022/11/19 11:04:19;;;;;;;0.60;0.60;;;31.10;56.80;;;;;;5003749;28;20201;-71
2022/11/19 11:07:00;;;;;;;0.77;0.77;;;30.70;53.40;;;;;;5003643;28;20247;-72
2022/11/19 11:09:36;;;;;;;0.77;0.77;;;30.40;56.30;;;;;;5003921;28;20195;-74
2022/11/19 11:15:14;;;;;;;0.80;0.80;;;29.70;56.70;;;;;;5007667;28;20223;-70
2022/11/19 11:17:41;;;;;;;1.02;0.88;;;29.70;55.10;;;;;;5047082;28;20197;-71
2022/11/19 11:20:13;;;;;;;1.02;1.02;;;29.80;58.60;;;;;;5064288;28;20214;-70
2022/11/19 11:22:38;;;;;;;1.23;1.23;;;29.80;58.10;;;;;;5066941;28;20186;-71
2022/11/19 11:25:20;;;;;;;1.45;1.35;;;30.10;58.30;;;;;;5065825;28;20178;-70
2022/11/19 11:28:21;;;;;;;1.40;1.27;;;30.30;55.70;;;;;;5068376;28;20235;-70
2022/11/19 11:31:02;;;;;;;1.77;1.67;;;30.30;56.30;;;;;;5068649;28;20182;-70
2022/11/19 11:33:52;;;;;;;3.10;1.85;;;30.00;56.90;;;;;;5068826;28;20179;-71
2022/11/19 11:36:23;;;;;;;2.00;1.52;;;29.60;54.70;;;;;;5065779;28;20178;-70
2022/11/19 11:38:51;;;;;;;3.28;1.60;;;29.00;57.00;;;;;;5067153;28;20190;-70
2022/11/19 11:41:38;;;;;;;1.40;1.40;;;28.70;58.40;;;;;;5071243;28;20832;-70
2022/11/19 11:44:21;;;;;;;1.35;1.25;;;28.70;58.10;;;;;;5062434;28;20488;-71
2022/11/19 11:46:55;;;;;;;1.77;1.08;;;28.80;58.10;;;;;;5065493;28;20215;-70
2022/11/19 11:49:34;;;;;;;1.08;0.95;;;28.60;56.10;;;;;;5063734;28;20205;-70
2022/11/19 11:52:11;;;;;;;0.77;0.77;;;28.30;57.00;;;;;;5072302;28;20186;-70
2022/11/19 11:54:52;;;;;;;1.33;0.80;;;28.30;57.40;;;;;;5065625;28;20174;-70
2022/11/19 11:57:21;;;;;;;1.10;0.80;;;28.10;55.70;;;;;;5069636;28;20178;-70
2022/11/19 11:59:47;;;;;;;2.17;0.70;;;27.60;59.10;;;;;;5070688;28;20261;-70
2022/11/19 12:02:31;;;;;;;0.75;0.75;;;27.30;58.00;;;;;;5067595;28;20206;-70
2022/11/19 12:05:06;;;;;;;1.77;0.77;;;26.90;57.80;;;;;;5061393;28;20179;-70
2022/11/19 12:07:50;;;;;;;1.00;1.00;;;26.70;58.40;;;;;;5056632;28;20924;-70
2022/11/19 12:10:24;;;;;;;1.45;0.80;;;26.40;60.10;;;;;;5062598;28;20178;-69
2022/11/19 12:13:23;;;;;;;0.90;0.90;;;26.20;59.60;;;;;;5065541;28;20190;-71
2022/11/19 12:16:21;;;;;;;0.85;0.85;;;25.90;59.30;;;;;;5058927;28;20301;-71
2022/11/19 12:18:49;;;;;;;1.20;0.93;;;25.70;60.10;;;;;;5026995;28;20984;-73
2022/11/19 12:21:53;;;;;;;0.85;0.85;;;25.50;60.70;;;;;;5024708;28;20187;-70
2022/11/19 12:24:21;;;;;;;0.80;0.80;;;25.20;60.80;;;;;;5030266;28;20195;-71
2022/11/19 12:27:01;;;;;;;1.08;1.08;;;25.10;62.80;;;;;;5011170;28;20220;-70
2022/11/19 12:29:51;;;;;;;0.90;0.90;;;25.00;61.90;;;;;;5026816;28;20219;-70
2022/11/19 12:32:46;;;;;;;1.67;1.20;;;24.90;62.40;;;;;;5021413;28;20690;-70
2022/11/19 12:35:37;;;;;;;1.10;1.10;;;24.80;63.80;;;;;;4942342;28;20199;-71
2022/11/19 12:38:14;;;;;;;0.90;0.90;;;24.60;62.70;;;;;;4942165;29;20690;-70
2022/11/19 12:41:02;;;;;;;0.82;0.82;;;24.40;62.50;;;;;;4940294;29;20740;-71
2022/11/19 12:43:34;;;;;;;0.80;0.80;;;24.20;63.90;;;;;;4896438;29;20207;-71
2022/11/19 12:46:18;;;;;;;1.50;0.65;;;24.10;62.70;;;;;;4897578;29;20349;-71
2022/11/19 12:48:52;;;;;;;1.08;0.60;;;23.90;62.80;;;;;;4897101;29;20304;-71
2022/11/19 12:51:23;;;;;;;0.98;0.90;;;23.40;64.90;;;;;;4898867;29;20250;-70
2022/11/19 12:54:13;;;;;;;0.80;0.80;;;23.10;65.10;;;;;;4898189;29;20304;-71
2022/11/19 12:57:17;;;;;;;0.60;0.60;;;22.90;65.70;;;;;;4905626;29;20302;-73
2022/11/19 13:00:09;;;;;;;0.70;0.70;;;22.80;65.40;;;;;;4920377;29;20953;-71
2022/11/19 13:02:48;;;;;;;1.15;0.88;;;22.60;66.30;;;;;;4912928;29;21783;-71
2022/11/19 13:05:41;;;;;;;1.65;0.70;;;22.40;66.70;;;;;;4912821;29;20339;-71
2022/11/19 13:08:25;;;;;;;1.77;0.60;;;22.20;66.90;;;;;;4912011;29;20242;-71
2022/11/19 13:11:13;;;;;;;0.90;0.90;;;22.00;67.40;;;;;;4910285;29;20781;-70
2022/11/19 13:13:45;;;;;;;1.92;1.20;;;21.80;68.10;;;;;;4963611;28;20218;-70
2022/11/19 13:16:15;;;;;;;0.90;0.90;;;21.60;68.30;;;;;;4969686;28;20197;-70
2022/11/19 13:18:44;;;;;;;0.80;0.80;;;21.50;68.60;;;;;;4963449;28;20193;-70
2022/11/19 13:21:12;;;;;;;1.35;0.98;;;21.50;67.70;;;;;;5040242;28;20902;-72
2022/11/19 13:23:44;;;;;;;1.25;1.25;;;21.30;68.80;;;;;;5067487;28;20190;-71
2022/11/19 13:26:12;;;;;;;2.00;1.25;;;21.20;68.80;;;;;;5068685;28;20199;-70
2022/11/19 13:29:12;;;;;;;1.00;0.90;;;21.10;68.40;;;;;;5071539;28;20686;-71
2022/11/19 13:31:47;;;;;;;2.75;1.00;;;20.90;68.60;;;;;;5070349;28;20179;-70